Time;durP1;ratioP1;P1;durP2;ratioP2;P2;SDS_P1;SDS_P2;PMS_P1;PMS_P2;Temp;Humidity;BMP_temperature;BMP_pressure;BME280_temperature;BME280_humidity;BME280_pressure;Samples;Min_cycle;Max_cycle;Signal;HPM_P1;HPM_P2
2023/09/27 00:01:58;;;;;;;3.50;3.20;;;;;;;;;;5010729;28;20660;-57
2023/09/27 00:04:24;;;;;;;4.27;3.50;;;;;;;;;;5012970;28;20656;-57
2023/09/27 00:06:50;;;;;;;3.50;3.20;;;;;;;;;;5012806;28;20201;-57
2023/09/27 00:09:16;;;;;;;3.80;3.33;;;;;;;;;;5012940;28;20205;-57
2023/09/27 00:11:44;;;;;;;3.67;3.37;;;;;;;;;;5012742;28;20194;-57
2023/09/27 00:14:10;;;;;;;3.60;3.30;;;;;;;;;;5012532;28;20208;-57
2023/09/27 00:16:39;;;;;;;3.80;3.47;;;;;;;;;;5012637;28;20209;-57
2023/09/27 00:19:05;;;;;;;3.50;3.20;;;;;;;;;;5012493;28;20670;-58
2023/09/27 00:21:31;;;;;;;3.70;3.40;;;;;;;;;;5012501;28;20680;-58
2023/09/27 00:23:57;;;;;;;3.97;3.67;;;;;;;;;;5012406;28;20205;-58
2023/09/27 00:26:23;;;;;;;4.00;3.60;;;;;;;;;;5012596;28;20208;-58
2023/09/27 00:28:50;;;;;;;4.43;3.80;;;;;;;;;;5012590;28;20194;-58
2023/09/27 00:31:16;;;;;;;3.57;3.27;;;;;;;;;;5012774;28;20599;-58
2023/09/27 00:33:42;;;;;;;3.47;3.17;;;;;;;;;;5012556;28;20758;-58
2023/09/27 00:36:09;;;;;;;3.83;3.50;;;;;;;;;;5012476;28;20311;-58
2023/09/27 00:38:35;;;;;;;3.70;3.40;;;;;;;;;;5012198;28;20275;-58
2023/09/27 00:41:01;;;;;;;3.53;3.23;;;;;;;;;;5012381;28;20543;-58
2023/09/27 00:43:28;;;;;;;4.00;3.60;;;;;;;;;;5012322;28;20742;-58
2023/09/27 00:45:57;;;;;;;4.33;3.87;;;;;;;;;;5012307;28;20221;-58
2023/09/27 00:48:24;;;;;;;5.53;3.80;;;;;;;;;;5012404;28;20209;-58
2023/09/27 00:50:50;;;;;;;3.70;3.40;;;;;;;;;;5012306;28;20189;-58
2023/09/27 00:53:16;;;;;;;3.57;3.27;;;;;;;;;;5012144;28;20647;-58
2023/09/27 00:55:43;;;;;;;4.17;3.63;;;;;;;;;;5012234;28;20205;-58
2023/09/27 00:58:09;;;;;;;4.77;3.87;;;;;;;;;;5014721;28;20632;-58
2023/09/27 01:00:37;;;;;;;4.90;4.50;;;;;;;;;;5016415;28;20668;-58
2023/09/27 01:03:05;;;;;;;5.47;4.97;;;;;;;;;;5016264;28;20205;-58
2023/09/27 01:05:31;;;;;;;6.07;4.90;;;;;;;;;;5016386;28;20650;-58
2023/09/27 01:08:00;;;;;;;4.90;4.50;;;;;;;;;;5016006;28;20293;-58
2023/09/27 01:10:26;;;;;;;3.97;3.67;;;;;;;;;;5016330;28;20267;-58
2023/09/27 01:12:52;;;;;;;4.57;3.93;;;;;;;;;;5016035;28;20675;-58
2023/09/27 01:15:18;;;;;;;4.33;3.77;;;;;;;;;;5016249;28;20568;-58
2023/09/27 01:17:54;;;;;;;4.03;3.53;;;;;;;;;;5015890;28;20775;-58
2023/09/27 01:20:21;;;;;;;4.10;3.70;;;;;;;;;;5016158;28;20212;-58
2023/09/27 01:22:52;;;;;;;3.70;3.40;;;;;;;;;;5015958;28;20207;-58
2023/09/27 01:25:20;;;;;;;4.27;3.83;;;;;;;;;;5016024;28;20621;-58
2023/09/27 01:27:46;;;;;;;3.80;3.50;;;;;;;;;;5015816;28;20197;-58
2023/09/27 01:30:12;;;;;;;4.13;3.73;;;;;;;;;;5015686;28;20207;-58
2023/09/27 01:32:38;;;;;;;3.73;3.43;;;;;;;;;;5015769;28;20325;-58
2023/09/27 01:35:06;;;;;;;3.87;3.57;;;;;;;;;;5015675;28;20213;-58
2023/09/27 01:37:32;;;;;;;5.07;3.50;;;;;;;;;;5015514;28;20237;-57
2023/09/27 01:40:00;;;;;;;3.97;3.57;;;;;;;;;;5015471;28;20687;-58
2023/09/27 01:42:26;;;;;;;4.13;3.83;;;;;;;;;;5015499;28;20206;-56
2023/09/27 01:44:52;;;;;;;4.07;3.67;;;;;;;;;;5015115;28;20611;-56
2023/09/27 01:47:18;;;;;;;4.07;3.57;;;;;;;;;;5015308;28;20571;-56
2023/09/27 01:49:44;;;;;;;4.03;3.63;;;;;;;;;;5015153;28;20225;-56
2023/09/27 01:52:10;;;;;;;3.93;3.63;;;;;;;;;;5015188;28;20198;-57
2023/09/27 01:54:36;;;;;;;3.87;3.57;;;;;;;;;;5015263;28;20205;-57
2023/09/27 01:57:04;;;;;;;3.90;3.60;;;;;;;;;;5015219;28;20226;-57
2023/09/27 01:59:30;;;;;;;4.83;3.93;;;;;;;;;;5015108;28;20749;-57
2023/09/27 02:01:56;;;;;;;4.10;3.70;;;;;;;;;;5015041;28;20244;-57
2023/09/27 02:04:22;;;;;;;3.93;3.57;;;;;;;;;;5015188;28;20692;-57
2023/09/27 02:06:48;;;;;;;4.30;4.00;;;;;;;;;;5015058;28;20642;-57
2023/09/27 02:09:14;;;;;;;4.03;3.43;;;;;;;;;;5013788;28;20648;-57
2023/09/27 02:11:40;;;;;;;3.73;3.43;;;;;;;;;;5014982;28;20197;-57
2023/09/27 02:14:08;;;;;;;6.63;3.67;;;;;;;;;;5014835;28;20656;-58
2023/09/27 02:16:34;;;;;;;4.00;3.60;;;;;;;;;;5014919;28;20228;-57
2023/09/27 02:19:04;;;;;;;4.30;3.60;;;;;;;;;;5014647;28;20226;-57
2023/09/27 02:21:30;;;;;;;4.07;3.30;;;;;;;;;;5014923;28;20201;-57
2023/09/27 02:23:56;;;;;;;4.27;3.87;;;;;;;;;;5014528;28;20814;-57
2023/09/27 02:26:22;;;;;;;3.90;3.60;;;;;;;;;;5014817;28;20193;-57
2023/09/27 02:28:48;;;;;;;3.47;3.17;;;;;;;;;;5014663;28;20284;-57
2023/09/27 02:31:15;;;;;;;3.87;3.47;;;;;;;;;;5014645;28;20280;-57
2023/09/27 02:33:41;;;;;;;3.63;3.13;;;;;;;;;;5014596;28;20225;-58
2023/09/27 02:36:08;;;;;;;3.83;3.40;;;;;;;;;;5012446;28;20252;-58
2023/09/27 02:38:34;;;;;;;4.00;3.70;;;;;;;;;;5014404;28;20240;-58
2023/09/27 02:41:00;;;;;;;3.63;3.30;;;;;;;;;;5014445;28;20198;-58
2023/09/27 02:43:26;;;;;;;4.07;3.70;;;;;;;;;;5014471;28;20201;-58
2023/09/27 02:45:52;;;;;;;3.80;3.30;;;;;;;;;;5014261;28;20204;-58
2023/09/27 02:48:20;;;;;;;4.10;3.27;;;;;;;;;;5014604;28;20197;-58
2023/09/27 02:50:47;;;;;;;3.70;3.40;;;;;;;;;;5014409;28;20210;-58
2023/09/27 02:53:13;;;;;;;3.33;3.00;;;;;;;;;;5014104;28;20208;-58
2023/09/27 02:55:39;;;;;;;3.90;3.57;;;;;;;;;;5014193;28;20201;-58
2023/09/27 02:58:05;;;;;;;3.47;3.17;;;;;;;;;;5014206;28;20244;-58
2023/09/27 03:00:33;;;;;;;3.73;3.43;;;;;;;;;;5014351;28;20660;-58
2023/09/27 03:03:00;;;;;;;4.40;3.90;;;;;;;;;;5014062;28;20672;-58
2023/09/27 03:05:28;;;;;;;4.00;3.70;;;;;;;;;;5014194;28;20209;-58
2023/09/27 03:07:54;;;;;;;3.90;3.60;;;;;;;;;;5013948;28;20282;-58
2023/09/27 03:10:20;;;;;;;5.53;3.57;;;;;;;;;;5014016;28;20653;-58
2023/09/27 03:12:48;;;;;;;3.90;3.50;;;;;;;;;;5013690;28;20242;-58
2023/09/27 03:15:14;;;;;;;3.80;3.50;;;;;;;;;;5013628;28;20213;-58
2023/09/27 03:17:40;;;;;;;4.13;3.77;;;;;;;;;;5013058;28;20197;-56
2023/09/27 03:20:09;;;;;;;4.20;3.80;;;;;;;;;;5013247;28;20240;-58
2023/09/27 03:22:36;;;;;;;4.63;4.23;;;;;;;;;;5013822;28;20186;-57
2023/09/27 03:25:02;;;;;;;5.70;5.20;;;;;;;;;;5013423;28;20575;-57
2023/09/27 03:27:28;;;;;;;4.67;4.27;;;;;;;;;;5013287;28;20636;-57
2023/09/27 03:29:54;;;;;;;4.90;4.00;;;;;;;;;;5013236;28;20288;-57
2023/09/27 03:32:20;;;;;;;5.07;4.00;;;;;;;;;;5013423;28;20198;-57
2023/09/27 03:34:46;;;;;;;4.30;3.90;;;;;;;;;;5013235;28;20205;-57
2023/09/27 03:37:14;;;;;;;5.47;4.23;;;;;;;;;;5013119;28;20193;-57
2023/09/27 03:39:42;;;;;;;5.83;4.00;;;;;;;;;;5012910;28;20324;-57
2023/09/27 03:42:08;;;;;;;4.10;3.70;;;;;;;;;;5013038;28;20209;-57
2023/09/27 03:44:34;;;;;;;3.77;3.47;;;;;;;;;;5013363;28;20197;-57
2023/09/27 03:47:00;;;;;;;4.10;3.70;;;;;;;;;;5013105;28;20208;-57
2023/09/27 03:49:26;;;;;;;3.97;3.50;;;;;;;;;;5012992;28;20599;-57
2023/09/27 03:51:52;;;;;;;3.83;3.53;;;;;;;;;;5012970;28;20202;-57
2023/09/27 03:54:18;;;;;;;3.50;3.20;;;;;;;;;;5013018;28;20271;-57
2023/09/27 03:56:47;;;;;;;3.93;3.43;;;;;;;;;;5012941;28;20209;-57
2023/09/27 03:59:13;;;;;;;4.90;3.80;;;;;;;;;;5012869;28;20771;-58
2023/09/27 04:01:39;;;;;;;3.80;3.50;;;;;;;;;;5013002;28;20205;-58
2023/09/27 04:04:05;;;;;;;4.10;3.10;;;;;;;;;;5012918;28;20201;-58
2023/09/27 04:06:31;;;;;;;3.77;3.33;;;;;;;;;;5013039;28;20205;-58
2023/09/27 04:08:57;;;;;;;3.93;3.53;;;;;;;;;;5012733;28;20229;-58
2023/09/27 04:11:23;;;;;;;3.90;3.60;;;;;;;;;;5012760;28;20260;-56
2023/09/27 04:13:51;;;;;;;4.23;3.73;;;;;;;;;;5012734;28;20779;-57
2023/09/27 04:16:17;;;;;;;3.93;3.53;;;;;;;;;;5010790;28;20206;-58
2023/09/27 04:18:43;;;;;;;3.73;3.40;;;;;;;;;;5012824;28;20229;-57
2023/09/27 04:21:10;;;;;;;3.80;3.50;;;;;;;;;;5012616;28;20240;-58
2023/09/27 04:23:36;;;;;;;3.90;3.60;;;;;;;;;;5012626;28;20206;-58
2023/09/27 04:26:06;;;;;;;4.13;3.73;;;;;;;;;;5012623;28;20197;-57
2023/09/27 04:28:32;;;;;;;3.77;3.47;;;;;;;;;;5012664;28;20201;-57
2023/09/27 04:31:00;;;;;;;3.53;3.23;;;;;;;;;;5012488;28;20204;-57
2023/09/27 04:33:26;;;;;;;4.33;3.87;;;;;;;;;;5012067;28;20232;-58
2023/09/27 04:35:52;;;;;;;3.90;3.37;;;;;;;;;;5012390;28;20221;-58
2023/09/27 04:38:18;;;;;;;3.80;3.40;;;;;;;;;;5012355;28;20237;-57
2023/09/27 04:40:44;;;;;;;4.30;3.83;;;;;;;;;;5012344;28;20284;-57
2023/09/27 04:43:11;;;;;;;4.90;3.73;;;;;;;;;;5012337;28;20534;-58
2023/09/27 04:45:38;;;;;;;4.77;3.77;;;;;;;;;;5012354;28;20271;-58
2023/09/27 04:48:06;;;;;;;4.40;4.10;;;;;;;;;;5012368;28;20593;-57
2023/09/27 04:50:32;;;;;;;3.97;3.67;;;;;;;;;;5012441;28;20222;-57
2023/09/27 04:52:58;;;;;;;4.50;4.10;;;;;;;;;;5012084;28;20248;-57
2023/09/27 04:55:24;;;;;;;4.97;3.87;;;;;;;;;;5012326;28;20201;-58
2023/09/27 04:57:50;;;;;;;3.87;3.57;;;;;;;;;;4992750;28;20217;-57
2023/09/27 05:00:19;;;;;;;3.97;3.67;;;;;;;;;;4992582;28;20213;-57
2023/09/27 05:02:45;;;;;;;4.67;4.20;;;;;;;;;;4992670;28;20198;-57
2023/09/27 05:05:13;;;;;;;4.50;4.10;;;;;;;;;;4992428;28;20733;-57
2023/09/27 05:07:40;;;;;;;5.37;4.30;;;;;;;;;;4992519;28;20617;-58
2023/09/27 05:10:06;;;;;;;4.00;3.70;;;;;;;;;;4992489;28;20225;-57
2023/09/27 05:12:32;;;;;;;4.37;3.97;;;;;;;;;;4992612;28;20253;-58
2023/09/27 05:14:58;;;;;;;4.07;3.77;;;;;;;;;;4992187;28;20198;-58
2023/09/27 05:17:25;;;;;;;4.30;3.90;;;;;;;;;;4992013;28;20564;-57
2023/09/27 05:19:51;;;;;;;5.23;4.27;;;;;;;;;;4992177;28;20234;-63
2023/09/27 05:22:19;;;;;;;5.33;4.83;;;;;;;;;;4991193;28;20198;-59
2023/09/27 05:24:45;;;;;;;5.17;4.60;;;;;;;;;;4992333;28;20206;-56
2023/09/27 05:27:11;;;;;;;5.17;4.67;;;;;;;;;;4992178;28;20208;-57
2023/09/27 05:29:37;;;;;;;6.33;4.90;;;;;;;;;;4992364;28;20224;-57
2023/09/27 05:32:03;;;;;;;5.53;5.03;;;;;;;;;;4992351;28;20699;-57
2023/09/27 05:34:29;;;;;;;5.37;4.43;;;;;;;;;;4992216;28;20195;-57
2023/09/27 05:36:55;;;;;;;5.23;4.57;;;;;;;;;;4992026;28;20309;-57
2023/09/27 05:39:23;;;;;;;4.97;4.57;;;;;;;;;;4992048;28;20274;-57
2023/09/27 05:41:49;;;;;;;5.20;4.70;;;;;;;;;;4992290;28;20257;-57
2023/09/27 05:44:16;;;;;;;4.90;4.50;;;;;;;;;;4994663;28;20199;-57
2023/09/27 05:46:43;;;;;;;5.13;4.63;;;;;;;;;;4995936;28;20218;-57
2023/09/27 05:49:11;;;;;;;4.93;4.50;;;;;;;;;;4995620;28;20317;-56
2023/09/27 05:51:37;;;;;;;4.50;4.10;;;;;;;;;;4995906;28;20202;-56
2023/09/27 05:54:05;;;;;;;4.60;4.20;;;;;;;;;;4995557;28;20212;-56
2023/09/27 05:56:33;;;;;;;4.40;4.07;;;;;;;;;;4995900;28;20198;-56
2023/09/27 05:58:59;;;;;;;4.40;4.10;;;;;;;;;;4995567;28;20230;-56
2023/09/27 06:01:25;;;;;;;6.03;5.53;;;;;;;;;;4995607;28;20209;-56
2023/09/27 06:03:51;;;;;;;5.77;5.27;;;;;;;;;;4995498;28;20641;-56
2023/09/27 06:06:17;;;;;;;5.20;4.70;;;;;;;;;;4995635;28;20209;-56
2023/09/27 06:08:43;;;;;;;5.83;5.23;;;;;;;;;;4995330;28;20201;-56
2023/09/27 06:11:10;;;;;;;7.40;6.07;;;;;;;;;;4995204;28;20202;-56
2023/09/27 06:13:38;;;;;;;5.73;5.13;;;;;;;;;;4995469;28;20205;-56
2023/09/27 06:16:12;;;;;;;5.80;5.40;;;;;;;;;;4995318;28;20703;-56
2023/09/27 06:18:38;;;;;;;5.53;5.13;;;;;;;;;;4995092;28;20226;-56
2023/09/27 06:21:04;;;;;;;5.87;5.37;;;;;;;;;;4995341;28;20554;-56
2023/09/27 06:23:30;;;;;;;5.97;5.47;;;;;;;;;;4995369;28;20202;-56
2023/09/27 06:25:56;;;;;;;5.50;5.00;;;;;;;;;;4995085;28;20260;-56
2023/09/27 06:28:22;;;;;;;6.10;5.50;;;;;;;;;;4995014;28;20565;-56
2023/09/27 06:30:50;;;;;;;5.93;4.70;;;;;;;;;;4995167;28;20572;-56
2023/09/27 06:33:16;;;;;;;5.63;5.13;;;;;;;;;;4994971;28;20202;-57
2023/09/27 06:35:42;;;;;;;6.47;5.97;;;;;;;;;;4992702;28;20314;-55
2023/09/27 06:38:08;;;;;;;6.80;6.20;;;;;;;;;;4994469;28;20628;-57
2023/09/27 06:40:35;;;;;;;5.73;5.30;;;;;;;;;;4994897;28;20202;-56
2023/09/27 06:43:01;;;;;;;6.13;5.63;;;;;;;;;;4994760;28;20199;-56
2023/09/27 06:45:28;;;;;;;6.70;6.13;;;;;;;;;;4994746;28;20198;-56
2023/09/27 06:47:56;;;;;;;5.93;5.33;;;;;;;;;;4994428;28;20561;-57
2023/09/27 06:50:22;;;;;;;6.93;5.27;;;;;;;;;;4994379;28;20198;-56
2023/09/27 06:52:48;;;;;;;5.40;4.90;;;;;;;;;;4994336;28;20571;-57
2023/09/27 06:55:16;;;;;;;5.97;5.40;;;;;;;;;;4994032;28;20260;-57
2023/09/27 06:57:44;;;;;;;7.60;6.03;;;;;;;;;;4994785;28;20198;-56
2023/09/27 07:00:24;;;;;;;6.37;5.77;;;;;;;;;;4994309;28;20232;-58
2023/09/27 07:02:50;;;;;;;9.67;6.10;;;;;;;;;;4994427;28;20234;-57
2023/09/27 07:05:20;;;;;;;5.60;4.80;;;;;;;;;;4994202;28;20203;-56
2023/09/27 07:07:47;;;;;;;6.13;5.63;;;;;;;;;;4994091;28;20285;-56
2023/09/27 07:10:13;;;;;;;5.83;5.33;;;;;;;;;;4994165;28;20277;-56
2023/09/27 07:12:40;;;;;;;6.10;5.50;;;;;;;;;;4994239;28;20233;-57
2023/09/27 07:15:10;;;;;;;5.30;4.90;;;;;;;;;;4994171;28;20665;-56
2023/09/27 07:17:38;;;;;;;5.13;4.73;;;;;;;;;;4994103;28;20201;-56
2023/09/27 07:20:13;;;;;;;5.80;5.30;;;;;;;;;;4994029;28;20233;-56
2023/09/27 07:22:42;;;;;;;5.40;4.90;;;;;;;;;;4994084;28;20202;-56
2023/09/27 07:25:12;;;;;;;5.23;4.67;;;;;;;;;;4991953;28;20221;-57
2023/09/27 07:27:40;;;;;;;4.43;4.07;;;;;;;;;;4993950;28;20256;-57
2023/09/27 07:30:09;;;;;;;4.53;4.20;;;;;;;;;;4993753;28;20196;-57
2023/09/27 07:32:37;;;;;;;4.40;4.00;;;;;;;;;;4993978;28;20294;-57
2023/09/27 07:35:04;;;;;;;5.10;4.60;;;;;;;;;;4993824;28;20238;-57
2023/09/27 07:37:32;;;;;;;4.20;3.80;;;;;;;;;;4993572;28;20209;-56
2023/09/27 07:39:59;;;;;;;3.90;3.50;;;;;;;;;;4993514;28;20232;-56
2023/09/27 07:42:25;;;;;;;5.37;3.30;;;;;;;;;;4993034;28;20296;-56
2023/09/27 07:44:51;;;;;;;4.07;3.70;;;;;;;;;;4993428;28;20227;-56
2023/09/27 07:47:19;;;;;;;3.60;3.30;;;;;;;;;;4993537;28;20243;-56
2023/09/27 07:49:45;;;;;;;3.50;3.20;;;;;;;;;;4993411;28;20201;-56
2023/09/27 07:52:11;;;;;;;3.70;3.40;;;;;;;;;;4993288;28;20713;-56
2023/09/27 07:54:37;;;;;;;3.80;3.23;;;;;;;;;;4993357;28;20205;-56
2023/09/27 07:57:05;;;;;;;4.43;3.63;;;;;;;;;;4993296;28;20201;-56
2023/09/27 07:59:31;;;;;;;;;;;;;;;;;;4993818;28;20054;-56
2023/09/27 08:01:57;;;;;;;4.55;4.15;;;;;;;;;;4990148;28;20858;-59
2023/09/27 08:04:23;;;;;;;5.30;4.80;;;;;;;;;;4991742;28;20512;-56
2023/09/27 08:06:49;;;;;;;4.20;3.67;;;;;;;;;;4992163;28;20198;-56
2023/09/27 08:09:16;;;;;;;4.33;3.93;;;;;;;;;;4992906;28;20625;-57
2023/09/27 08:11:43;;;;;;;6.47;3.70;;;;;;;;;;4992955;28;20202;-56
2023/09/27 08:14:11;;;;;;;3.50;3.23;;;;;;;;;;4992813;28;20198;-57
2023/09/27 08:16:37;;;;;;;3.80;3.50;;;;;;;;;;4992898;28;20285;-57
2023/09/27 08:19:04;;;;;;;3.87;3.57;;;;;;;;;;4992865;28;20226;-56
2023/09/27 08:21:30;;;;;;;6.23;4.27;;;;;;;;;;4992747;28;20288;-56
2023/09/27 08:23:56;;;;;;;3.87;3.47;;;;;;;;;;4992350;28;20205;-56
2023/09/27 08:26:22;;;;;;;4.50;4.00;;;;;;;;;;4992435;28;20194;-57
2023/09/27 08:28:48;;;;;;;4.67;3.60;;;;;;;;;;4990628;28;20260;-57
2023/09/27 08:31:17;;;;;;;5.23;3.60;;;;;;;;;;4992418;28;20202;-57
2023/09/27 08:33:43;;;;;;;3.80;3.50;;;;;;;;;;4992516;28;20281;-57
2023/09/27 08:36:09;;;;;;;4.10;3.60;;;;;;;;;;4992443;28;20243;-57
2023/09/27 08:38:35;;;;;;;4.60;3.87;;;;;;;;;;4992347;28;20265;-56
2023/09/27 08:41:03;;;;;;;6.10;4.00;;;;;;;;;;4992651;28;20198;-55
2023/09/27 08:43:31;;;;;;;6.80;3.80;;;;;;;;;;4992562;28;20242;-56
2023/09/27 08:45:57;;;;;;;4.70;3.90;;;;;;;;;;5002175;28;20259;-58
2023/09/27 08:48:25;;;;;;;5.20;3.60;;;;;;;;;;5031581;28;20212;-56
2023/09/27 08:50:51;;;;;;;5.10;4.60;;;;;;;;;;5031386;28;20196;-56
2023/09/27 08:53:17;;;;;;;4.47;3.80;;;;;;;;;;5031524;28;20198;-56
2023/09/27 08:55:47;;;;;;;6.30;3.80;;;;;;;;;;5031712;28;20230;-57
2023/09/27 08:58:14;;;;;;;4.47;3.50;;;;;;;;;;5031671;28;20211;-57
2023/09/27 09:00:41;;;;;;;5.37;3.50;;;;;;;;;;5031992;28;20207;-57
2023/09/27 09:03:07;;;;;;;3.80;3.35;;;;;;;;;;5030384;28;20503;-56
2023/09/27 09:05:36;;;;;;;7.30;2.80;;;;;;;;;;5031982;28;20201;-57
2023/09/27 09:08:06;;;;;;;3.57;2.93;;;;;;;;;;5031458;28;20220;-57
2023/09/27 09:10:33;;;;;;;3.80;3.17;;;;;;;;;;5031948;28;20664;-57
2023/09/27 09:13:00;;;;;;;4.67;3.13;;;;;;;;;;5031808;28;20252;-57
2023/09/27 09:15:35;;;;;;;4.23;2.97;;;;;;;;;;5028481;28;20216;-57
2023/09/27 09:18:06;;;;;;;4.78;3.10;;;;;;;;;;5011059;28;20492;-58
2023/09/27 09:20:33;;;;;;;3.13;2.73;;;;;;;;;;5015936;28;20225;-57
2023/09/27 09:23:07;;;;;;;3.27;2.57;;;;;;;;;;5015765;28;20621;-57
2023/09/27 09:25:42;;;;;;;3.80;3.30;;;;;;;;;;5016101;28;20214;-58
2023/09/27 09:28:08;;;;;;;4.50;3.73;;;;;;;;;;5015709;28;20206;-57
2023/09/27 09:30:35;;;;;;;3.43;3.13;;;;;;;;;;5015716;28;20207;-57
2023/09/27 09:33:02;;;;;;;3.60;3.30;;;;;;;;;;5015722;28;20717;-57
2023/09/27 09:35:30;;;;;;;3.47;3.17;;;;;;;;;;5015666;28;20771;-57
2023/09/27 09:37:56;;;;;;;3.93;3.63;;;;;;;;;;5015441;28;20287;-56
2023/09/27 09:40:24;;;;;;;6.77;3.80;;;;;;;;;;5015447;28;20230;-57
2023/09/27 09:42:51;;;;;;;4.13;3.73;;;;;;;;;;5015320;28;20587;-57
2023/09/27 09:45:17;;;;;;;5.37;3.73;;;;;;;;;;5011637;28;20199;-57
2023/09/27 09:47:44;;;;;;;4.43;3.43;;;;;;;;;;5015191;28;20563;-56
2023/09/27 09:50:17;;;;;;;4.10;3.33;;;;;;;;;;5015130;28;20264;-55
2023/09/27 09:52:47;;;;;;;3.70;3.40;;;;;;;;;;5015477;28;20244;-56
2023/09/27 09:55:19;;;;;;;4.93;3.50;;;;;;;;;;5015391;28;20200;-55
2023/09/27 09:57:47;;;;;;;4.57;3.30;;;;;;;;;;5015365;28;20605;-55
2023/09/27 10:00:17;;;;;;;4.63;3.83;;;;;;;;;;5015125;28;20230;-56
2023/09/27 10:02:49;;;;;;;4.87;3.80;;;;;;;;;;5015378;28;20237;-55
2023/09/27 10:05:15;;;;;;;4.20;3.80;;;;;;;;;;5015076;28;20200;-56
2023/09/27 10:07:41;;;;;;;3.40;3.10;;;;;;;;;;5014837;28;20194;-55
2023/09/27 10:10:08;;;;;;;3.87;3.27;;;;;;;;;;5015056;28;20253;-56
2023/09/27 10:12:34;;;;;;;4.00;3.50;;;;;;;;;;5015332;28;20199;-56
2023/09/27 10:15:02;;;;;;;4.87;2.97;;;;;;;;;;5015216;28;20227;-56
2023/09/27 10:17:29;;;;;;;6.00;2.43;;;;;;;;;;5015148;28;20212;-56
2023/09/27 10:20:11;;;;;;;4.53;2.90;;;;;;;;;;5015038;28;20239;-56
2023/09/27 10:22:38;;;;;;;6.93;3.07;;;;;;;;;;5015081;28;20228;-56
2023/09/27 10:25:04;;;;;;;3.33;2.90;;;;;;;;;;5014875;28;20231;-56
2023/09/27 10:27:45;;;;;;;2.63;2.40;;;;;;;;;;5014927;28;20201;-56
2023/09/27 10:30:12;;;;;;;4.37;2.70;;;;;;;;;;5013490;28;20292;-56
2023/09/27 10:32:38;;;;;;;2.80;2.60;;;;;;;;;;5014629;28;20665;-56
2023/09/27 10:35:16;;;;;;;2.80;2.40;;;;;;;;;;5014509;28;20298;-56
2023/09/27 10:37:58;;;;;;;3.87;2.30;;;;;;;;;;5014517;28;20574;-55
2023/09/27 10:40:25;;;;;;;2.77;2.30;;;;;;;;;;5014457;28;20235;-56
2023/09/27 10:42:51;;;;;;;5.47;2.30;;;;;;;;;;5014643;28;20204;-56
2023/09/27 10:45:19;;;;;;;3.40;2.20;;;;;;;;;;5014496;28;20711;-56
2023/09/27 10:47:46;;;;;;;3.60;2.10;;;;;;;;;;5014459;28;20275;-56
2023/09/27 10:50:13;;;;;;;5.37;4.40;;;;;;;;;;5010542;28;20224;-57
2023/09/27 10:52:39;;;;;;;2.87;2.40;;;;;;;;;;5010012;28;20211;-55
2023/09/27 10:55:09;;;;;;;2.27;2.07;;;;;;;;;;5014082;28;20201;-55
2023/09/27 10:57:35;;;;;;;2.37;2.07;;;;;;;;;;5013880;28;20567;-55
2023/09/27 11:00:01;;;;;;;3.20;2.10;;;;;;;;;;5013626;28;20729;-55
2023/09/27 11:02:29;;;;;;;2.63;2.10;;;;;;;;;;5013729;28;20181;-55
2023/09/27 11:04:56;;;;;;;3.13;2.03;;;;;;;;;;5013729;28;20212;-55
2023/09/27 11:07:22;;;;;;;3.00;1.90;;;;;;;;;;5013274;28;20688;-55
2023/09/27 11:09:49;;;;;;;3.67;2.47;;;;;;;;;;5013802;28;20201;-56
2023/09/27 11:12:21;;;;;;;3.38;2.53;;;;;;;;;;5012434;28;20393;-58
2023/09/27 11:14:47;;;;;;;2.83;2.30;;;;;;;;;;5014015;28;20203;-55
2023/09/27 11:17:15;;;;;;;5.23;2.20;;;;;;;;;;5013757;28;20198;-56
2023/09/27 11:19:42;;;;;;;4.13;2.83;;;;;;;;;;5013712;28;20736;-56
2023/09/27 11:22:08;;;;;;;2.43;2.23;;;;;;;;;;5013669;28;20299;-56
2023/09/27 11:24:37;;;;;;;6.87;2.50;;;;;;;;;;5013603;28;20572;-55
2023/09/27 11:27:03;;;;;;;2.30;2.10;;;;;;;;;;5013713;28;20208;-56
2023/09/27 11:29:29;;;;;;;3.87;2.30;;;;;;;;;;5013376;28;20208;-56
2023/09/27 11:31:58;;;;;;;2.80;2.37;;;;;;;;;;5013603;28;20205;-56
2023/09/27 11:34:24;;;;;;;3.27;2.83;;;;;;;;;;5013338;28;20255;-56
2023/09/27 11:36:53;;;;;;;4.33;2.20;;;;;;;;;;5013430;28;20225;-56
2023/09/27 11:39:20;;;;;;;2.57;2.03;;;;;;;;;;5013216;28;20236;-56
2023/09/27 11:41:46;;;;;;;2.70;2.20;;;;;;;;;;5013412;28;20251;-56
2023/09/27 11:44:19;;;;;;;3.10;2.00;;;;;;;;;;5013265;28;20592;-56
2023/09/27 11:46:45;;;;;;;2.63;2.23;;;;;;;;;;5013418;28;20638;-55
2023/09/27 11:49:11;;;;;;;3.63;2.03;;;;;;;;;;5013243;28;20216;-56
2023/09/27 11:51:37;;;;;;;3.50;2.03;;;;;;;;;;5013201;28;20201;-56
2023/09/27 11:54:05;;;;;;;4.20;2.17;;;;;;;;;;5011358;28;20839;-54
2023/09/27 11:56:31;;;;;;;4.57;2.60;;;;;;;;;;5013227;28;20215;-54
2023/09/27 11:58:57;;;;;;;3.67;2.20;;;;;;;;;;5013066;28;20888;-55
2023/09/27 12:01:23;;;;;;;2.80;2.13;;;;;;;;;;5012990;28;20202;-55
2023/09/27 12:03:50;;;;;;;3.53;2.30;;;;;;;;;;5013231;28;20201;-56
2023/09/27 12:06:16;;;;;;;2.77;2.20;;;;;;;;;;5012942;28;20210;-56
2023/09/27 12:08:43;;;;;;;3.07;2.13;;;;;;;;;;5013209;28;20197;-56
2023/09/27 12:11:11;;;;;;;4.03;2.50;;;;;;;;;;5012896;28;20805;-55
2023/09/27 12:13:37;;;;;;;1.80;1.70;;;;;;;;;;5012891;28;20671;-55
2023/09/27 12:16:03;;;;;;;4.50;4.10;;;;;;;;;;5012864;28;20250;-55
2023/09/27 12:18:29;;;;;;;5.30;2.27;;;;;;;;;;5012629;28;20204;-55
2023/09/27 12:20:55;;;;;;;3.30;2.10;;;;;;;;;;5012265;28;20258;-54
2023/09/27 12:23:21;;;;;;;2.67;1.80;;;;;;;;;;5012594;28;20748;-55
2023/09/27 12:25:48;;;;;;;3.90;2.10;;;;;;;;;;5012753;28;20220;-56
2023/09/27 12:28:15;;;;;;;2.85;2.10;;;;;;;;;;5011352;28;20408;-55
2023/09/27 12:30:41;;;;;;;3.72;2.15;;;;;;;;;;5011202;28;20892;-55
2023/09/27 12:33:07;;;;;;;3.60;2.15;;;;;;;;;;5011200;28;20495;-56
2023/09/27 12:35:33;;;;;;;2.60;2.07;;;;;;;;;;5012380;28;20248;-56
2023/09/27 12:38:03;;;;;;;4.53;2.60;;;;;;;;;;5012485;28;20232;-56
2023/09/27 12:40:31;;;;;;;3.17;2.20;;;;;;;;;;5012237;28;20720;-55
2023/09/27 12:42:57;;;;;;;4.07;2.20;;;;;;;;;;5011187;28;20412;-56
2023/09/27 12:45:25;;;;;;;2.00;1.80;;;;;;;;;;5012237;28;20228;-54
2023/09/27 12:47:51;;;;;;;2.60;1.80;;;;;;;;;;5012256;28;20244;-57
2023/09/27 12:50:20;;;;;;;4.40;2.15;;;;;;;;;;5010942;28;20419;-55
2023/09/27 12:52:46;;;;;;;4.17;2.30;;;;;;;;;;5012004;28;20210;-55
2023/09/27 12:55:12;;;;;;;3.20;2.30;;;;;;;;;;5012241;28;20780;-54
2023/09/27 12:57:38;;;;;;;3.43;2.13;;;;;;;;;;5012175;28;20261;-55
2023/09/27 13:00:08;;;;;;;2.57;1.90;;;;;;;;;;5012135;28;20272;-55
2023/09/27 13:02:37;;;;;;;2.37;1.87;;;;;;;;;;5012409;28;20226;-57
2023/09/27 13:05:03;;;;;;;2.30;2.10;;;;;;;;;;5012212;28;20213;-54
2023/09/27 13:07:29;;;;;;;2.47;2.10;;;;;;;;;;5012156;28;20198;-53
2023/09/27 13:09:55;;;;;;;3.13;2.20;;;;;;;;;;5009234;28;20404;-53
2023/09/27 13:12:21;;;;;;;3.60;2.10;;;;;;;;;;5012232;28;20197;-53
2023/09/27 13:14:47;;;;;;;5.77;3.90;;;;;;;;;;5012320;28;20255;-53
2023/09/27 13:17:13;;;;;;;3.90;2.43;;;;;;;;;;5012056;28;20663;-53
2023/09/27 13:19:40;;;;;;;2.77;1.90;;;;;;;;;;5012202;28;20232;-53
2023/09/27 13:22:06;;;;;;;3.83;1.87;;;;;;;;;;5012119;28;20201;-53
2023/09/27 13:24:32;;;;;;;3.00;2.20;;;;;;;;;;5012218;28;20201;-53
2023/09/27 13:26:58;;;;;;;2.30;2.10;;;;;;;;;;5012379;28;20723;-53
2023/09/27 13:29:24;;;;;;;2.43;2.20;;;;;;;;;;5011890;28;20675;-53
2023/09/27 13:31:50;;;;;;;4.17;2.17;;;;;;;;;;5012128;28;20295;-55
2023/09/27 13:34:16;;;;;;;3.00;2.10;;;;;;;;;;5011952;28;20211;-55
2023/09/27 13:36:44;;;;;;;2.70;2.10;;;;;;;;;;5010733;28;20216;-55
2023/09/27 13:39:29;;;;;;;3.80;2.10;;;;;;;;;;5011589;28;20232;-55
2023/09/27 13:41:55;;;;;;;4.20;2.20;;;;;;;;;;5011973;28;20645;-54
2023/09/27 13:44:22;;;;;;;3.33;2.17;;;;;;;;;;5011809;28;20255;-53
2023/09/27 13:46:49;;;;;;;3.90;2.03;;;;;;;;;;5011856;28;20203;-54
2023/09/27 13:49:15;;;;;;;3.77;2.47;;;;;;;;;;5011600;28;20206;-54
2023/09/27 13:51:41;;;;;;;3.37;2.33;;;;;;;;;;5011712;28;20197;-54
2023/09/27 13:54:09;;;;;;;2.40;2.20;;;;;;;;;;5011660;28;20250;-53
2023/09/27 13:56:36;;;;;;;2.17;1.90;;;;;;;;;;5011790;28;20294;-53
2023/09/27 13:59:03;;;;;;;2.40;2.00;;;;;;;;;;5011299;28;20228;-55
2023/09/27 14:01:30;;;;;;;2.77;2.10;;;;;;;;;;5011485;28;20208;-53
2023/09/27 14:03:58;;;;;;;2.67;1.90;;;;;;;;;;5010336;28;20627;-54
2023/09/27 14:06:24;;;;;;;2.60;2.07;;;;;;;;;;5013177;28;20205;-52
2023/09/27 14:08:51;;;;;;;4.90;2.70;;;;;;;;;;4995719;28;20240;-54
2023/09/27 14:11:20;;;;;;;3.10;2.03;;;;;;;;;;4995260;28;20200;-54
2023/09/27 14:13:47;;;;;;;3.23;2.00;;;;;;;;;;4995348;28;20219;-54
2023/09/27 14:16:16;;;;;;;2.50;2.00;;;;;;;;;;4995443;28;20213;-56
2023/09/27 14:18:42;;;;;;;2.00;1.80;;;;;;;;;;4995147;28;20214;-56
2023/09/27 14:21:08;;;;;;;2.53;1.80;;;;;;;;;;4995224;28;20260;-55
2023/09/27 14:23:35;;;;;;;4.07;2.00;;;;;;;;;;4995370;28;20200;-56
2023/09/27 14:26:01;;;;;;;2.33;2.13;;;;;;;;;;4995047;28;20242;-55
2023/09/27 14:28:28;;;;;;;3.87;1.70;;;;;;;;;;4995089;28;20219;-56
2023/09/27 14:30:55;;;;;;;2.63;2.00;;;;;;;;;;4995003;28;20286;-56
2023/09/27 14:33:21;;;;;;;1.90;1.77;;;;;;;;;;4994889;28;20691;-56
2023/09/27 14:35:47;;;;;;;5.47;2.27;;;;;;;;;;4995060;28;20219;-56
2023/09/27 14:38:17;;;;;;;2.90;1.92;;;;;;;;;;4993601;28;20506;-56
2023/09/27 14:40:43;;;;;;;2.30;2.03;;;;;;;;;;4994975;28;20231;-56
2023/09/27 14:43:09;;;;;;;3.03;2.00;;;;;;;;;;4994821;28;20257;-56